createdAt,value
2023-02-02T00:24:34.480Z,506.00
2023-02-02T00:25:34.531Z,507.00
2023-02-02T00:26:34.591Z,510.00
2023-02-02T00:27:34.651Z,506.00
2023-02-02T00:28:34.710Z,508.00
2023-02-02T00:29:34.771Z,508.00
2023-02-02T00:30:34.864Z,506.00
2023-02-02T00:31:34.955Z,504.00
2023-02-02T00:32:34.957Z,510.00
2023-02-02T00:33:35.005Z,505.00
2023-02-02T00:34:35.036Z,501.00
2023-02-02T00:35:35.077Z,510.00
2023-02-02T00:36:35.129Z,509.00
2023-02-02T00:37:35.165Z,507.00
2023-02-02T00:38:35.216Z,509.00
2023-02-02T00:39:35.242Z,510.00
2023-02-02T00:40:35.242Z,506.00
2023-02-02T00:41:35.291Z,511.00
2023-02-02T00:42:35.330Z,508.00
2023-02-02T00:43:35.400Z,510.00
2023-02-02T00:44:35.464Z,507.00
2023-02-02T00:45:35.547Z,511.00
2023-02-02T00:46:35.563Z,508.00
2023-02-02T00:47:35.630Z,510.00
2023-02-02T00:48:35.684Z,509.00
2023-02-02T00:49:35.730Z,509.00
2023-02-02T00:50:35.769Z,509.00
2023-02-02T00:51:35.822Z,505.00
2023-02-02T00:52:35.873Z,506.00
2023-02-02T00:53:35.930Z,507.00
2023-02-02T00:54:36.000Z,507.00
2023-02-02T00:55:36.047Z,509.00
2023-02-02T00:56:36.136Z,510.00
2023-02-02T00:57:36.528Z,507.00
2023-02-02T00:58:36.227Z,513.00
2023-02-02T00:59:36.306Z,506.00
2023-02-02T01:00:36.341Z,510.00
2023-02-02T01:01:36.404Z,501.00
2023-02-02T01:02:36.445Z,508.00
2023-02-02T01:03:36.485Z,508.00
2023-02-02T01:04:36.541Z,507.00
2023-02-02T01:05:36.594Z,506.00
2023-02-02T01:06:36.656Z,507.00
2023-02-02T01:07:36.715Z,506.00
2023-02-02T01:08:36.761Z,509.00
2023-02-02T01:09:36.825Z,509.00
2023-02-02T01:10:36.876Z,509.00
2023-02-02T01:11:36.937Z,506.00
2023-02-02T01:12:36.996Z,510.00
2023-02-02T01:13:37.062Z,508.00
2023-02-02T01:14:37.113Z,504.00
2023-02-02T01:15:37.168Z,504.00
2023-02-02T01:16:38.074Z,506.00
2023-02-02T01:17:37.276Z,507.00
2023-02-02T01:18:37.337Z,507.00
2023-02-02T01:19:37.398Z,511.00
2023-02-02T01:20:37.461Z,509.00
2023-02-02T01:21:37.522Z,508.00
2023-02-02T01:22:37.576Z,505.00
2023-02-02T01:23:37.632Z,507.00
2023-02-02T01:24:37.698Z,509.00
2023-02-02T01:25:37.743Z,506.00
2023-02-02T01:26:37.845Z,508.00
2023-02-02T01:27:37.845Z,507.00
2023-02-02T01:28:37.888Z,504.00
2023-02-02T01:29:37.924Z,508.00
2023-02-02T01:30:38.001Z,506.00
2023-02-02T01:31:38.028Z,507.00
2023-02-02T01:32:37.990Z,506.00
2023-02-02T01:33:37.993Z,503.00
2023-02-02T01:34:37.995Z,502.00
2023-02-02T01:35:37.995Z,504.00
2023-02-02T01:36:38.020Z,509.00
2023-02-02T01:37:38.053Z,503.00
2023-02-02T01:38:38.073Z,508.00
2023-02-02T01:39:38.123Z,506.00
2023-02-02T01:40:38.181Z,508.00
2023-02-02T01:41:38.234Z,507.00
2023-02-02T01:42:38.283Z,511.00
2023-02-02T01:43:38.328Z,509.00
2023-02-02T01:44:38.390Z,510.00
2023-02-02T01:45:38.465Z,509.00
2023-02-02T01:46:38.495Z,507.00
2023-02-02T01:47:38.524Z,505.00
2023-02-02T01:48:38.542Z,511.00
2023-02-02T03:42:44.462Z,507.00
2023-02-02T03:43:44.518Z,504.00
2023-02-02T03:44:44.549Z,503.00
2023-02-02T03:45:44.631Z,507.00
2023-02-02T03:46:44.673Z,504.00
2023-02-02T03:47:44.623Z,509.00
2023-02-02T03:48:44.655Z,504.00
2023-02-02T03:49:44.696Z,508.00
2023-02-02T03:50:44.720Z,506.00
2023-02-02T03:51:44.775Z,504.00
2023-02-02T03:52:44.827Z,511.00
2023-02-02T03:53:44.885Z,507.00
2023-02-02T03:54:44.909Z,503.00
2023-02-02T03:55:44.947Z,508.00
2023-02-02T03:56:44.964Z,506.00
2023-02-02T03:57:45.021Z,505.00
2023-02-02T03:58:45.062Z,501.00
2023-02-02T03:59:45.120Z,503.00
2023-02-02T04:00:45.171Z,503.00
2023-02-02T04:01:45.295Z,503.00
2023-02-02T04:02:45.332Z,505.00
2023-02-02T04:03:45.344Z,512.00
2023-02-02T04:04:45.410Z,509.00
2023-02-02T04:05:45.470Z,506.00
2023-02-02T04:06:45.525Z,507.00
2023-02-02T04:07:45.593Z,509.00
2023-02-02T04:08:45.647Z,509.00
2023-02-02T04:09:45.696Z,509.00
2023-02-02T04:10:45.756Z,500.00
2023-02-02T04:11:45.815Z,509.00
2023-02-02T04:12:45.877Z,508.00
2023-02-02T04:13:45.944Z,506.00
2023-02-02T04:14:45.989Z,505.00
2023-02-02T04:15:46.040Z,507.00
2023-02-02T04:16:46.110Z,510.00
2023-02-02T04:17:46.153Z,508.00
2023-02-02T04:18:46.225Z,505.00
2023-02-02T04:19:46.275Z,500.00
2023-02-02T04:20:46.335Z,509.00
2023-02-02T04:21:46.376Z,508.00
2023-02-02T04:22:46.418Z,511.00
2023-02-02T04:23:46.478Z,508.00
2023-02-02T04:24:46.533Z,508.00
2023-02-02T04:25:46.577Z,509.00
2023-02-02T04:26:46.661Z,509.00
2023-02-02T04:27:46.686Z,510.00
2023-02-02T04:28:46.751Z,510.00
2023-02-02T04:29:46.798Z,508.00
2023-02-02T04:30:46.867Z,509.00
2023-02-02T04:31:46.948Z,510.00
2023-02-02T04:32:46.950Z,511.00
2023-02-02T04:33:47.000Z,511.00
2023-02-02T04:34:47.053Z,512.00
2023-02-02T04:35:47.095Z,511.00
2023-02-02T04:36:47.148Z,505.00
2023-02-02T04:37:47.196Z,515.00
2023-02-02T04:57:48.143Z,509.00
2023-02-02T04:58:48.185Z,511.00
2023-02-02T04:59:48.234Z,508.00
2023-02-02T05:00:48.304Z,509.00
2023-02-02T05:01:48.325Z,504.00
2023-02-02T05:02:48.374Z,511.00
2023-02-02T05:03:48.427Z,502.00
2023-02-02T05:04:48.515Z,515.00
2023-02-02T05:05:48.516Z,512.00
2023-02-02T05:06:48.557Z,506.00
2023-02-02T05:07:48.605Z,511.00
2023-02-02T05:08:48.648Z,502.00
2023-02-02T05:09:48.705Z,509.00
2023-02-02T05:10:48.737Z,511.00
2023-02-02T05:11:48.776Z,505.00
2023-02-02T05:12:48.825Z,513.00
2023-02-02T05:13:48.882Z,515.00
2023-02-02T05:14:48.920Z,507.00
2023-02-02T05:15:48.958Z,511.00
2023-02-02T07:26:54.654Z,522.00
2023-02-02T08:11:53.527Z,792.00
2023-02-02T08:12:53.518Z,808.00
2023-02-02T08:13:53.504Z,824.00
2023-02-02T08:14:53.477Z,827.00
2023-02-02T08:15:53.478Z,830.00
2023-02-02T08:16:53.419Z,849.00
2023-02-02T08:17:53.390Z,852.00
2023-02-02T08:18:53.365Z,812.00
2023-02-02T08:19:53.359Z,587.00
2023-02-02T08:20:53.394Z,495.00
2023-02-02T08:21:53.395Z,500.00
2023-02-02T08:22:53.447Z,512.00
2023-02-02T08:23:54.167Z,498.00
2023-02-02T08:24:53.570Z,492.00
2023-02-02T08:25:53.601Z,488.00
2023-02-02T08:26:53.650Z,500.00
2023-02-02T08:27:53.650Z,530.00
2023-02-02T08:28:53.669Z,580.00
2023-02-02T08:29:53.730Z,627.00
2023-02-02T08:30:53.883Z,658.00
2023-02-02T08:31:53.904Z,664.00
2023-02-02T08:32:53.909Z,693.00
2023-02-02T08:33:53.966Z,709.00
2023-02-02T08:34:53.973Z,721.00
2023-02-02T08:35:53.998Z,742.00
2023-02-02T08:36:53.993Z,781.00
2023-02-02T08:37:54.022Z,812.00
2023-02-02T08:38:54.015Z,846.00
2023-02-02T08:39:54.039Z,823.00
2023-02-02T08:40:54.086Z,849.00
2023-02-02T08:41:54.135Z,867.00
2023-02-02T08:42:54.179Z,881.00
2023-02-02T08:43:54.226Z,899.00
2023-02-02T08:46:03.247Z,933.00
2023-02-02T08:46:13.024Z,933.00
2023-02-02T08:46:55.273Z,935.00
2023-02-02T08:48:09.523Z,938.00
2023-02-02T08:48:55.154Z,936.00
2023-02-02T08:49:54.135Z,941.00
2023-02-02T08:50:54.120Z,951.00
2023-02-02T08:51:54.099Z,976.00
2023-02-02T08:52:54.079Z,1006.00
2023-02-02T08:53:54.060Z,1042.00
2023-02-02T08:54:54.046Z,1051.00
2023-02-02T08:55:54.017Z,1044.00
2023-02-02T08:56:53.993Z,1063.00
2023-02-02T08:57:53.967Z,1076.00
2023-02-02T08:58:53.942Z,1107.00
2023-02-02T08:59:53.924Z,1100.00
2023-02-02T09:00:53.936Z,1104.00
2023-02-02T09:01:53.915Z,1123.00
2023-02-02T09:02:53.860Z,1139.00
2023-02-02T09:03:53.834Z,1128.00
2023-02-02T09:04:53.811Z,1141.00
2023-02-02T09:05:53.781Z,1165.00
2023-02-02T09:06:53.751Z,1165.00
2023-02-02T09:07:53.720Z,1188.00
2023-02-02T09:08:53.757Z,1190.00
2023-02-02T09:09:53.663Z,1199.00
2023-02-02T09:10:53.646Z,1215.00
2023-02-02T09:11:53.616Z,1234.00
2023-02-02T09:12:53.597Z,1241.00
2023-02-02T09:13:53.566Z,1256.00
2023-02-02T09:14:53.545Z,1250.00
2023-02-02T09:15:53.533Z,1276.00
2023-02-02T09:16:53.540Z,1272.00
2023-02-02T09:17:53.483Z,999.00
2023-02-02T09:18:53.469Z,893.00
2023-02-02T09:19:53.473Z,870.00
2023-02-02T09:20:53.450Z,930.00
2023-02-02T09:21:53.448Z,920.00
2023-02-02T09:22:53.442Z,985.00
2023-02-02T09:23:53.445Z,1094.00
2023-02-02T09:24:53.450Z,1139.00
2023-02-02T09:25:53.431Z,1156.00
2023-02-02T09:26:53.484Z,1167.00
2023-02-02T09:27:53.415Z,1185.00
2023-02-02T09:28:53.441Z,1192.00
2023-02-02T09:29:54.118Z,1199.00
2023-02-02T09:30:53.628Z,1199.00
2023-02-02T09:31:53.721Z,1208.00
2023-02-02T09:32:53.664Z,1205.00
2023-02-02T09:33:53.716Z,1209.00
2023-02-02T09:34:53.740Z,1211.00
2023-02-02T09:35:53.781Z,1194.00
2023-02-02T09:36:53.807Z,1203.00
2023-02-02T09:37:53.839Z,1195.00
2023-02-02T09:38:53.864Z,1216.00
2023-02-02T09:39:53.895Z,1206.00
2023-02-02T09:40:53.909Z,1205.00
2023-02-02T09:41:54.893Z,1206.00
2023-02-02T09:42:53.885Z,1206.00
2023-02-02T09:43:53.867Z,1205.00
2023-02-02T09:44:53.865Z,1206.00
2023-02-02T09:45:53.865Z,1201.00
2023-02-02T09:46:53.884Z,1196.00
2023-02-02T09:47:53.821Z,1193.00
2023-02-02T09:48:53.803Z,1184.00
2023-02-02T09:49:53.796Z,1191.00
2023-02-02T09:50:53.777Z,1185.00
2023-02-02T09:51:53.760Z,1181.00
2023-02-02T09:52:53.756Z,1185.00
2023-02-02T09:53:55.972Z,1173.00
2023-02-02T09:54:53.718Z,1174.00
2023-02-02T09:55:53.726Z,1184.00
2023-02-02T09:56:53.723Z,1179.00
2023-02-02T09:57:53.736Z,1172.00
2023-02-02T09:58:53.746Z,1179.00
2023-02-02T09:59:53.756Z,1158.00
2023-02-02T10:00:53.883Z,1163.00
2023-02-02T10:01:53.787Z,1178.00
2023-02-02T10:02:53.793Z,1155.00
2023-02-02T10:03:53.814Z,1172.00
2023-02-02T10:04:53.812Z,1157.00
2023-02-02T10:05:53.810Z,1155.00
2023-02-02T10:06:53.840Z,1160.00
2023-02-02T10:07:53.829Z,1145.00
2023-02-02T10:08:53.839Z,1148.00
2023-02-02T10:09:53.847Z,1144.00
2023-02-02T10:10:53.849Z,1136.00
2023-02-02T10:12:53.924Z,1138.00
2023-02-02T10:13:53.877Z,1129.00
2023-02-02T11:15:56.465Z,992.00
2023-02-02T11:23:53.724Z,1021.00
2023-02-02T12:42:51.753Z,1165.00
2023-02-02T12:47:51.724Z,1118.00
2023-02-02T12:48:51.719Z,1090.00
2023-02-02T12:49:51.712Z,1093.00
2023-02-02T12:50:51.707Z,1084.00
2023-02-02T12:51:51.689Z,1093.00
2023-02-02T16:25:51.045Z,688.00
2023-02-02T16:26:51.078Z,692.00
2023-02-02T16:27:51.076Z,697.00
2023-02-02T16:28:51.082Z,683.00
2023-02-02T16:29:51.112Z,677.00
2023-02-02T16:30:51.223Z,678.00
2023-02-02T16:31:51.192Z,681.00
2023-02-02T16:32:51.287Z,678.00
2023-02-02T16:33:51.173Z,683.00
2023-02-02T16:34:51.218Z,678.00
2023-02-02T16:35:51.230Z,675.00
2023-02-02T16:36:51.227Z,685.00
2023-02-02T16:37:51.255Z,673.00
2023-02-02T16:38:51.277Z,665.00
2023-02-02T16:39:51.365Z,676.00
2023-02-02T16:40:51.310Z,678.00
2023-02-02T16:41:51.402Z,679.00
2023-02-02T16:42:51.418Z,668.00
2023-02-02T16:43:51.418Z,677.00
2023-02-02T16:44:51.427Z,675.00
2023-02-02T16:45:51.464Z,667.00
2023-02-02T16:46:51.448Z,679.00
2023-02-02T16:47:51.506Z,666.00
2023-02-02T16:48:51.532Z,663.00
2023-02-02T16:49:51.515Z,675.00
2023-02-02T16:50:51.534Z,666.00
2023-02-02T16:51:51.557Z,666.00
2023-02-02T16:52:51.575Z,666.00
2023-02-02T16:53:51.586Z,664.00
2023-02-02T16:54:51.621Z,664.00
2023-02-02T16:55:51.951Z,667.00
2023-02-02T16:56:51.672Z,662.00
2023-02-02T16:57:51.686Z,661.00
2023-02-02T16:58:51.735Z,664.00
2023-02-02T16:59:51.735Z,664.00
2023-02-02T17:00:53.926Z,659.00
2023-02-02T17:01:51.874Z,658.00
2023-02-02T17:02:51.880Z,662.00
2023-02-02T17:03:51.819Z,660.00
2023-02-02T17:04:51.857Z,657.00
2023-02-02T17:05:51.890Z,663.00
2023-02-02T17:06:53.483Z,662.00
2023-02-02T17:07:51.934Z,659.00
2023-02-02T17:08:51.968Z,656.00
2023-02-02T17:09:52.002Z,657.00
2023-02-02T17:10:52.056Z,657.00
2023-02-02T17:11:52.065Z,652.00
2023-02-02T17:12:52.088Z,657.00
2023-02-02T17:13:52.116Z,659.00
2023-02-02T17:14:52.146Z,658.00
2023-02-02T17:15:52.192Z,657.00
2023-02-02T17:16:52.240Z,660.00
2023-02-02T17:17:52.261Z,660.00
2023-02-02T17:18:52.312Z,654.00
2023-02-02T17:19:52.305Z,660.00
2023-02-02T17:20:52.338Z,656.00
2023-02-02T17:21:52.357Z,654.00
2023-02-02T17:22:52.420Z,658.00
2023-02-02T17:23:52.427Z,656.00
2023-02-02T17:24:52.460Z,656.00
2023-02-02T17:25:52.500Z,657.00
2023-02-02T17:26:52.580Z,655.00
2023-02-02T17:27:52.540Z,652.00
2023-02-02T17:28:52.565Z,653.00
2023-02-02T17:29:52.601Z,655.00
2023-02-02T17:30:52.844Z,652.00
2023-02-02T17:31:52.782Z,656.00
2023-02-02T17:32:52.676Z,651.00
2023-02-02T17:33:52.715Z,652.00
2023-02-02T17:34:52.740Z,653.00
2023-02-02T17:35:55.355Z,655.00
2023-02-02T17:36:52.764Z,662.00
2023-02-02T17:37:52.741Z,654.00
2023-02-02T17:38:52.740Z,651.00
2023-02-02T17:39:52.710Z,655.00
2023-02-02T17:40:52.725Z,650.00
2023-02-02T17:41:52.689Z,651.00
2023-02-02T17:42:52.666Z,652.00
2023-02-02T17:43:52.655Z,650.00
2023-02-02T17:44:52.636Z,648.00
2023-02-02T17:45:52.641Z,647.00
2023-02-02T17:46:52.612Z,650.00
2023-02-02T17:47:52.580Z,655.00
2023-02-02T17:48:52.572Z,649.00
2023-02-02T19:12:53.375Z,624.00
2023-02-02T19:13:53.400Z,620.00
2023-02-02T19:14:53.438Z,621.00
2023-02-02T19:15:53.506Z,625.00
2023-02-02T19:16:53.511Z,624.00
2023-02-02T19:17:54.369Z,629.00
2023-02-02T19:18:53.589Z,621.00
2023-02-02T19:19:53.629Z,623.00
2023-02-02T19:20:53.658Z,622.00
2023-02-02T19:21:53.685Z,620.00
2023-02-02T19:22:53.745Z,618.00
2023-02-02T19:23:53.769Z,621.00
2023-02-02T19:24:53.803Z,619.00
2023-02-02T19:25:53.840Z,623.00
2023-02-02T19:26:53.971Z,619.00
2023-02-02T19:27:53.919Z,618.00
2023-02-02T19:28:53.959Z,625.00
2023-02-02T19:29:53.985Z,621.00
2023-02-02T19:30:54.053Z,616.00
2023-02-02T19:31:54.078Z,618.00
2023-02-02T19:32:54.094Z,620.00
2023-02-02T19:33:54.140Z,615.00
2023-02-02T19:34:54.179Z,621.00
2023-02-02T19:35:54.211Z,617.00
2023-02-02T19:36:54.269Z,615.00
2023-02-02T19:37:54.296Z,615.00
2023-02-02T19:38:54.321Z,614.00
2023-02-02T19:39:54.362Z,612.00
2023-02-02T19:40:54.396Z,618.00
2023-02-02T19:41:54.434Z,614.00
2023-02-02T19:42:54.471Z,615.00
2023-02-02T19:43:54.511Z,614.00
2023-02-02T19:44:54.540Z,618.00
2023-02-02T19:45:54.571Z,618.00
2023-02-02T19:46:54.633Z,614.00
2023-02-02T19:47:54.643Z,618.00
2023-02-02T19:48:54.683Z,614.00
2023-02-02T19:49:54.738Z,611.00
2023-02-02T19:50:54.789Z,610.00
2023-02-02T19:51:54.810Z,613.00
2023-02-02T19:52:54.829Z,608.00
2023-02-02T19:53:54.866Z,611.00
2023-02-02T19:54:54.899Z,614.00
2023-02-02T19:55:55.003Z,607.00
2023-02-02T19:56:54.973Z,614.00
2023-02-02T19:57:55.003Z,607.00
2023-02-02T19:58:55.029Z,610.00
2023-02-02T19:59:55.055Z,613.00
2023-02-02T20:00:55.101Z,612.00
2023-02-02T20:01:55.136Z,612.00
2023-02-02T20:02:55.185Z,607.00
2023-02-02T20:03:55.215Z,618.00
2023-02-02T20:04:55.237Z,607.00
2023-02-02T20:05:55.282Z,606.00
2023-02-02T20:06:59.422Z,606.00
2023-02-02T20:07:55.314Z,607.00
2023-02-02T20:08:55.268Z,608.00
2023-02-02T20:09:55.240Z,603.00
2023-02-02T20:10:55.233Z,609.00
2023-02-02T20:11:55.206Z,603.00
2023-02-02T20:12:55.183Z,607.00
2023-02-02T20:13:55.163Z,609.00
2023-02-02T20:14:55.149Z,609.00
2023-02-02T20:16:03.729Z,610.00
2023-02-02T20:16:56.162Z,610.00
2023-02-02T20:17:55.133Z,608.00
2023-02-02T20:18:55.112Z,606.00
2023-02-02T20:19:55.104Z,611.00
2023-02-02T20:20:55.095Z,609.00
2023-02-02T20:21:55.083Z,602.00
2023-02-02T20:22:55.077Z,607.00
2023-02-02T20:23:55.070Z,603.00
2023-02-02T20:24:55.060Z,605.00
2023-02-02T20:25:55.048Z,601.00
2023-02-02T20:26:55.088Z,602.00
2023-02-02T20:27:55.031Z,605.00
2023-02-02T20:28:55.030Z,606.00
2023-02-02T20:29:55.019Z,603.00
2023-02-02T20:30:55.063Z,602.00
2023-02-02T20:31:55.192Z,606.00
2023-02-02T20:32:55.172Z,606.00
2023-02-02T20:33:55.200Z,609.00
2023-02-02T20:34:55.248Z,607.00
2023-02-02T20:35:55.269Z,601.00
2023-02-02T20:36:55.324Z,606.00
2023-02-02T20:37:55.402Z,606.00
2023-02-02T20:38:55.412Z,602.00
2023-02-02T20:39:55.466Z,603.00
2023-02-02T20:40:55.499Z,605.00
2023-02-02T20:41:55.543Z,601.00
2023-02-02T20:42:55.593Z,596.00
2023-02-02T20:43:55.631Z,600.00
2023-02-02T20:44:55.675Z,602.00
2023-02-02T20:45:55.800Z,599.00
2023-02-02T20:46:55.762Z,601.00
2023-02-02T20:47:55.824Z,599.00
2023-02-02T20:48:55.861Z,599.00
2023-02-02T20:49:55.908Z,600.00
2023-02-02T20:50:55.964Z,601.00
2023-02-02T20:51:55.996Z,596.00
2023-02-02T20:52:56.038Z,599.00
2023-02-02T20:53:56.133Z,598.00
2023-02-02T20:54:56.119Z,593.00
2023-02-02T20:55:56.179Z,597.00
2023-02-02T20:56:56.214Z,598.00
2023-02-02T20:57:56.255Z,595.00
2023-02-02T20:58:56.303Z,600.00
2023-02-02T20:59:56.351Z,600.00
2023-02-02T21:00:56.424Z,598.00
2023-02-02T21:01:56.548Z,599.00
2023-02-02T21:02:56.474Z,596.00
2023-02-02T21:03:56.529Z,597.00
2023-02-02T21:04:56.566Z,597.00
2023-02-02T21:51:58.764Z,583.00
2023-02-02T21:52:58.804Z,583.00
2023-02-02T21:53:58.872Z,586.00
2023-02-02T21:54:58.908Z,588.00
2023-02-02T21:55:58.951Z,579.00
2023-02-02T21:56:58.988Z,583.00
2023-02-02T23:26:03.407Z,575.00
2023-02-02T23:27:03.472Z,572.00
2023-02-02T23:28:03.561Z,572.00
2023-02-02T23:29:03.579Z,570.00
2023-02-02T23:30:03.624Z,570.00
2023-02-02T23:31:03.855Z,565.00
2023-02-02T23:32:03.816Z,579.00
2023-02-02T23:33:03.780Z,575.00
2023-02-02T23:34:03.834Z,569.00
2023-02-02T23:35:03.899Z,568.00
2023-02-02T23:36:03.942Z,571.00
2023-02-02T23:37:03.993Z,570.00
2023-02-02T23:38:04.054Z,572.00
2023-02-02T23:39:04.111Z,565.00
2023-02-02T23:40:04.157Z,572.00
2023-02-02T23:41:04.220Z,567.00
2023-02-02T23:42:04.272Z,570.00
2023-02-02T23:43:04.313Z,570.00
2023-02-02T23:44:04.377Z,565.00
2023-02-02T23:45:04.425Z,573.00
2023-02-02T23:46:04.485Z,559.00
2023-02-02T23:47:04.542Z,564.00
2023-02-02T23:48:04.585Z,569.00
2023-02-02T23:49:04.645Z,569.00
2023-02-02T23:50:04.701Z,563.00
2023-02-02T23:51:04.750Z,568.00
2023-02-02T23:52:04.815Z,571.00
2023-02-02T23:53:04.861Z,565.00
2023-02-02T23:54:04.913Z,565.00
2023-02-02T23:55:04.967Z,564.00
2023-02-02T23:56:05.010Z,562.00
2023-02-02T23:57:05.067Z,563.00
2023-02-02T23:58:05.115Z,564.00
2023-02-02T23:59:05.163Z,562.00
